sensor_id;sensor_type;location;lat;lon;timestamp;P1;durP1;ratioP1;P2;durP2;ratioP2
13108;SDS011;6620;53.734;11.510;2023-02-18T00:00:57;18.95;;;2.70;;
13108;SDS011;6620;53.734;11.510;2023-02-18T00:03:23;20.85;;;3.67;;
13108;SDS011;6620;53.734;11.510;2023-02-18T00:05:48;16.88;;;2.95;;
13108;SDS011;6620;53.734;11.510;2023-02-18T00:08:13;7.93;;;1.63;;
13108;SDS011;6620;53.734;11.510;2023-02-18T00:10:41;20.67;;;2.23;;
13108;SDS011;6620;53.734;11.510;2023-02-18T00:13:07;16.33;;;3.42;;
13108;SDS011;6620;53.734;11.510;2023-02-18T00:15:35;21.53;;;3.67;;
13108;SDS011;6620;53.734;11.510;2023-02-18T00:18:01;11.45;;;1.45;;
13108;SDS011;6620;53.734;11.510;2023-02-18T00:20:26;18.95;;;2.33;;
13108;SDS011;6620;53.734;11.510;2023-02-18T00:22:51;16.87;;;3.23;;
13108;SDS011;6620;53.734;11.510;2023-02-18T00:25:16;11.83;;;2.10;;
13108;SDS011;6620;53.734;11.510;2023-02-18T00:27:41;13.23;;;2.60;;
13108;SDS011;6620;53.734;11.510;2023-02-18T00:30:07;16.17;;;2.00;;
13108;SDS011;6620;53.734;11.510;2023-02-18T00:32:33;16.42;;;2.17;;
13108;SDS011;6620;53.734;11.510;2023-02-18T00:34:58;25.05;;;2.65;;
13108;SDS011;6620;53.734;11.510;2023-02-18T00:37:24;13.57;;;1.83;;
13108;SDS011;6620;53.734;11.510;2023-02-18T00:39:49;9.25;;;3.13;;
13108;SDS011;6620;53.734;11.510;2023-02-18T00:42:14;15.53;;;2.40;;
13108;SDS011;6620;53.734;11.510;2023-02-18T00:44:39;11.80;;;1.90;;
13108;SDS011;6620;53.734;11.510;2023-02-18T00:47:04;32.25;;;5.15;;
13108;SDS011;6620;53.734;11.510;2023-02-18T00:49:30;15.23;;;1.73;;
13108;SDS011;6620;53.734;11.510;2023-02-18T00:51:55;16.00;;;2.33;;
13108;SDS011;6620;53.734;11.510;2023-02-18T00:54:20;18.63;;;3.17;;
13108;SDS011;6620;53.734;11.510;2023-02-18T00:56:45;20.70;;;2.83;;
13108;SDS011;6620;53.734;11.510;2023-02-18T00:59:11;12.33;;;1.87;;
13108;SDS011;6620;53.734;11.510;2023-02-18T01:01:36;11.20;;;2.53;;
13108;SDS011;6620;53.734;11.510;2023-02-18T01:04:01;14.43;;;1.92;;
13108;SDS011;6620;53.734;11.510;2023-02-18T01:06:26;16.30;;;1.73;;
13108;SDS011;6620;53.734;11.510;2023-02-18T01:08:51;16.60;;;2.00;;
13108;SDS011;6620;53.734;11.510;2023-02-18T01:11:17;10.75;;;2.08;;
13108;SDS011;6620;53.734;11.510;2023-02-18T01:13:42;21.95;;;2.92;;
13108;SDS011;6620;53.734;11.510;2023-02-18T01:16:08;20.07;;;2.43;;
13108;SDS011;6620;53.734;11.510;2023-02-18T01:18:33;14.45;;;1.58;;
13108;SDS011;6620;53.734;11.510;2023-02-18T01:20:58;15.00;;;2.25;;
13108;SDS011;6620;53.734;11.510;2023-02-18T01:23:23;13.43;;;1.92;;
13108;SDS011;6620;53.734;11.510;2023-02-18T01:25:49;19.77;;;3.03;;
13108;SDS011;6620;53.734;11.510;2023-02-18T01:28:14;13.93;;;3.72;;
13108;SDS011;6620;53.734;11.510;2023-02-18T01:30:40;12.90;;;1.80;;
13108;SDS011;6620;53.734;11.510;2023-02-18T01:33:06;15.55;;;2.17;;
13108;SDS011;6620;53.734;11.510;2023-02-18T01:35:31;17.90;;;1.98;;
13108;SDS011;6620;53.734;11.510;2023-02-18T01:37:56;18.27;;;1.90;;
13108;SDS011;6620;53.734;11.510;2023-02-18T01:40:23;4.40;;;1.58;;
13108;SDS011;6620;53.734;11.510;2023-02-18T01:42:49;16.58;;;2.58;;
13108;SDS011;6620;53.734;11.510;2023-02-18T01:47:58;13.65;;;3.45;;
13108;SDS011;6620;53.734;11.510;2023-02-18T01:50:24;19.13;;;2.00;;
13108;SDS011;6620;53.734;11.510;2023-02-18T01:52:50;16.20;;;2.60;;
13108;SDS011;6620;53.734;11.510;2023-02-18T01:55:15;22.47;;;3.23;;
13108;SDS011;6620;53.734;11.510;2023-02-18T01:57:41;16.65;;;1.98;;
13108;SDS011;6620;53.734;11.510;2023-02-18T02:00:13;23.25;;;2.53;;
13108;SDS011;6620;53.734;11.510;2023-02-18T02:02:40;22.05;;;2.05;;
13108;SDS011;6620;53.734;11.510;2023-02-18T02:05:06;17.27;;;1.60;;
13108;SDS011;6620;53.734;11.510;2023-02-18T02:07:31;22.77;;;3.75;;
13108;SDS011;6620;53.734;11.510;2023-02-18T02:09:57;18.83;;;2.20;;
13108;SDS011;6620;53.734;11.510;2023-02-18T02:33:34;19.55;;;2.03;;
13108;SDS011;6620;53.734;11.510;2023-02-18T02:36:12;27.83;;;3.13;;
13108;SDS011;6620;53.734;11.510;2023-02-18T02:41:43;25.80;;;3.50;;
13108;SDS011;6620;53.734;11.510;2023-02-18T02:44:13;27.20;;;2.70;;
13108;SDS011;6620;53.734;11.510;2023-02-18T02:46:43;7.90;;;1.63;;
13108;SDS011;6620;53.734;11.510;2023-02-18T02:54:16;28.27;;;2.97;;
13108;SDS011;6620;53.734;11.510;2023-02-18T02:56:41;27.65;;;2.45;;
13108;SDS011;6620;53.734;11.510;2023-02-18T02:59:08;24.92;;;2.65;;
13108;SDS011;6620;53.734;11.510;2023-02-18T03:04:04;28.08;;;3.63;;
13108;SDS011;6620;53.734;11.510;2023-02-18T03:09:12;20.13;;;2.37;;
13108;SDS011;6620;53.734;11.510;2023-02-18T03:11:49;24.60;;;4.10;;
13108;SDS011;6620;53.734;11.510;2023-02-18T03:14:29;23.25;;;2.60;;
13108;SDS011;6620;53.734;11.510;2023-02-18T03:17:01;24.10;;;2.65;;
13108;SDS011;6620;53.734;11.510;2023-02-18T03:19:32;28.90;;;2.95;;
13108;SDS011;6620;53.734;11.510;2023-02-18T03:24:28;21.27;;;3.45;;
13108;SDS011;6620;53.734;11.510;2023-02-18T03:27:14;24.35;;;3.25;;
13108;SDS011;6620;53.734;11.510;2023-02-18T03:29:40;22.98;;;2.63;;
13108;SDS011;6620;53.734;11.510;2023-02-18T03:32:06;20.65;;;2.25;;
13108;SDS011;6620;53.734;11.510;2023-02-18T03:34:35;32.47;;;3.78;;
13108;SDS011;6620;53.734;11.510;2023-02-18T03:37:02;18.90;;;3.08;;
13108;SDS011;6620;53.734;11.510;2023-02-18T03:39:28;24.17;;;2.83;;
13108;SDS011;6620;53.734;11.510;2023-02-18T03:41:53;16.30;;;2.60;;
13108;SDS011;6620;53.734;11.510;2023-02-18T03:44:19;31.27;;;3.95;;
13108;SDS011;6620;53.734;11.510;2023-02-18T03:46:44;23.13;;;3.92;;
13108;SDS011;6620;53.734;11.510;2023-02-18T03:49:10;20.38;;;3.40;;
13108;SDS011;6620;53.734;11.510;2023-02-18T03:51:36;19.90;;;2.85;;
13108;SDS011;6620;53.734;11.510;2023-02-18T03:54:01;23.65;;;2.15;;
13108;SDS011;6620;53.734;11.510;2023-02-18T03:56:26;16.40;;;2.77;;
13108;SDS011;6620;53.734;11.510;2023-02-18T03:58:51;21.25;;;3.30;;
13108;SDS011;6620;53.734;11.510;2023-02-18T04:01:17;27.43;;;2.90;;
13108;SDS011;6620;53.734;11.510;2023-02-18T04:03:42;29.57;;;2.93;;
13108;SDS011;6620;53.734;11.510;2023-02-18T04:06:07;31.83;;;3.80;;
13108;SDS011;6620;53.734;11.510;2023-02-18T04:08:32;27.63;;;2.85;;
13108;SDS011;6620;53.734;11.510;2023-02-18T04:10:58;24.88;;;3.50;;
13108;SDS011;6620;53.734;11.510;2023-02-18T04:13:23;22.90;;;2.28;;
13108;SDS011;6620;53.734;11.510;2023-02-18T04:15:49;28.55;;;2.88;;
13108;SDS011;6620;53.734;11.510;2023-02-18T04:18:14;20.42;;;2.72;;
13108;SDS011;6620;53.734;11.510;2023-02-18T04:20:39;32.97;;;2.38;;
13108;SDS011;6620;53.734;11.510;2023-02-18T04:23:04;23.40;;;3.97;;
13108;SDS011;6620;53.734;11.510;2023-02-18T04:25:30;19.55;;;2.95;;
13108;SDS011;6620;53.734;11.510;2023-02-18T04:27:55;21.05;;;2.90;;
13108;SDS011;6620;53.734;11.510;2023-02-18T04:30:20;14.15;;;1.27;;
13108;SDS011;6620;53.734;11.510;2023-02-18T04:32:46;22.63;;;2.15;;
13108;SDS011;6620;53.734;11.510;2023-02-18T04:35:11;22.13;;;3.13;;
13108;SDS011;6620;53.734;11.510;2023-02-18T04:37:36;29.48;;;4.30;;
13108;SDS011;6620;53.734;11.510;2023-02-18T04:40:02;19.23;;;3.15;;
13108;SDS011;6620;53.734;11.510;2023-02-18T04:42:27;24.05;;;2.58;;
13108;SDS011;6620;53.734;11.510;2023-02-18T04:44:52;16.67;;;2.08;;
13108;SDS011;6620;53.734;11.510;2023-02-18T04:47:18;23.98;;;2.85;;
13108;SDS011;6620;53.734;11.510;2023-02-18T04:49:43;19.00;;;2.83;;
13108;SDS011;6620;53.734;11.510;2023-02-18T04:52:08;25.35;;;2.15;;
13108;SDS011;6620;53.734;11.510;2023-02-18T04:54:33;15.77;;;1.93;;
13108;SDS011;6620;53.734;11.510;2023-02-18T04:56:59;26.17;;;2.60;;
13108;SDS011;6620;53.734;11.510;2023-02-18T04:59:24;21.60;;;2.10;;
13108;SDS011;6620;53.734;11.510;2023-02-18T05:01:49;23.83;;;4.10;;
13108;SDS011;6620;53.734;11.510;2023-02-18T05:04:14;18.45;;;2.08;;
13108;SDS011;6620;53.734;11.510;2023-02-18T05:06:41;17.17;;;1.98;;
13108;SDS011;6620;53.734;11.510;2023-02-18T05:09:07;19.15;;;2.67;;
13108;SDS011;6620;53.734;11.510;2023-02-18T05:11:32;18.98;;;2.45;;
13108;SDS011;6620;53.734;11.510;2023-02-18T05:13:57;19.67;;;2.55;;
13108;SDS011;6620;53.734;11.510;2023-02-18T05:16:22;22.20;;;3.40;;
13108;SDS011;6620;53.734;11.510;2023-02-18T05:18:47;23.10;;;2.23;;
13108;SDS011;6620;53.734;11.510;2023-02-18T05:21:13;21.07;;;2.70;;
13108;SDS011;6620;53.734;11.510;2023-02-18T05:23:38;17.57;;;2.30;;
13108;SDS011;6620;53.734;11.510;2023-02-18T05:26:03;23.27;;;2.73;;
13108;SDS011;6620;53.734;11.510;2023-02-18T05:28:28;11.88;;;1.65;;
13108;SDS011;6620;53.734;11.510;2023-02-18T05:30:53;22.67;;;2.30;;
13108;SDS011;6620;53.734;11.510;2023-02-18T05:33:19;25.90;;;3.45;;
13108;SDS011;6620;53.734;11.510;2023-02-18T05:35:44;21.10;;;2.55;;
13108;SDS011;6620;53.734;11.510;2023-02-18T05:38:09;21.93;;;2.50;;
13108;SDS011;6620;53.734;11.510;2023-02-18T05:40:34;18.92;;;2.53;;
13108;SDS011;6620;53.734;11.510;2023-02-18T05:43:00;13.65;;;2.25;;
13108;SDS011;6620;53.734;11.510;2023-02-18T05:45:25;10.57;;;2.43;;
13108;SDS011;6620;53.734;11.510;2023-02-18T05:47:50;14.82;;;2.72;;
13108;SDS011;6620;53.734;11.510;2023-02-18T05:50:15;17.95;;;2.92;;
13108;SDS011;6620;53.734;11.510;2023-02-18T05:52:41;9.43;;;2.85;;
13108;SDS011;6620;53.734;11.510;2023-02-18T05:55:06;14.20;;;3.00;;
13108;SDS011;6620;53.734;11.510;2023-02-18T05:57:31;19.83;;;2.72;;
13108;SDS011;6620;53.734;11.510;2023-02-18T05:59:56;20.63;;;2.03;;
13108;SDS011;6620;53.734;11.510;2023-02-18T06:02:22;18.60;;;2.07;;
13108;SDS011;6620;53.734;11.510;2023-02-18T06:04:47;20.95;;;2.30;;
13108;SDS011;6620;53.734;11.510;2023-02-18T06:07:12;17.50;;;1.90;;
13108;SDS011;6620;53.734;11.510;2023-02-18T06:09:37;9.88;;;1.27;;
13108;SDS011;6620;53.734;11.510;2023-02-18T06:12:03;19.10;;;2.27;;
13108;SDS011;6620;53.734;11.510;2023-02-18T06:14:28;20.80;;;2.83;;
13108;SDS011;6620;53.734;11.510;2023-02-18T06:16:53;20.50;;;1.88;;
13108;SDS011;6620;53.734;11.510;2023-02-18T06:19:18;12.87;;;2.30;;
13108;SDS011;6620;53.734;11.510;2023-02-18T06:21:44;15.80;;;1.73;;
13108;SDS011;6620;53.734;11.510;2023-02-18T06:24:09;12.30;;;1.23;;
13108;SDS011;6620;53.734;11.510;2023-02-18T06:26:34;11.88;;;1.60;;
13108;SDS011;6620;53.734;11.510;2023-02-18T06:28:59;12.10;;;1.00;;
13108;SDS011;6620;53.734;11.510;2023-02-18T06:31:25;7.17;;;2.07;;
13108;SDS011;6620;53.734;11.510;2023-02-18T06:33:50;15.95;;;2.03;;
13108;SDS011;6620;53.734;11.510;2023-02-18T06:36:15;9.37;;;1.60;;
13108;SDS011;6620;53.734;11.510;2023-02-18T06:38:41;3.67;;;0.70;;
13108;SDS011;6620;53.734;11.510;2023-02-18T06:41:07;10.98;;;1.27;;
13108;SDS011;6620;53.734;11.510;2023-02-18T06:43:32;14.98;;;1.45;;
13108;SDS011;6620;53.734;11.510;2023-02-18T06:45:58;5.03;;;0.93;;
13108;SDS011;6620;53.734;11.510;2023-02-18T06:48:23;8.98;;;1.40;;
13108;SDS011;6620;53.734;11.510;2023-02-18T06:50:48;8.20;;;2.10;;
13108;SDS011;6620;53.734;11.510;2023-02-18T06:53:14;6.15;;;0.52;;
13108;SDS011;6620;53.734;11.510;2023-02-18T06:55:41;11.02;;;0.93;;
13108;SDS011;6620;53.734;11.510;2023-02-18T06:58:06;10.18;;;1.20;;
13108;SDS011;6620;53.734;11.510;2023-02-18T07:00:31;14.77;;;2.03;;
13108;SDS011;6620;53.734;11.510;2023-02-18T07:02:57;8.93;;;1.10;;
13108;SDS011;6620;53.734;11.510;2023-02-18T07:05:22;11.17;;;1.03;;
13108;SDS011;6620;53.734;11.510;2023-02-18T07:07:47;8.17;;;0.90;;
13108;SDS011;6620;53.734;11.510;2023-02-18T07:10:12;10.65;;;1.25;;
13108;SDS011;6620;53.734;11.510;2023-02-18T07:12:37;11.10;;;1.20;;
13108;SDS011;6620;53.734;11.510;2023-02-18T07:15:03;6.23;;;0.87;;
13108;SDS011;6620;53.734;11.510;2023-02-18T07:17:28;9.80;;;1.27;;
13108;SDS011;6620;53.734;11.510;2023-02-18T07:19:54;10.30;;;1.35;;
13108;SDS011;6620;53.734;11.510;2023-02-18T07:22:20;8.05;;;1.40;;
13108;SDS011;6620;53.734;11.510;2023-02-18T07:24:45;12.43;;;1.63;;
13108;SDS011;6620;53.734;11.510;2023-02-18T07:27:10;13.87;;;1.43;;
13108;SDS011;6620;53.734;11.510;2023-02-18T07:29:36;8.30;;;1.17;;
13108;SDS011;6620;53.734;11.510;2023-02-18T07:32:01;7.93;;;1.37;;
13108;SDS011;6620;53.734;11.510;2023-02-18T07:34:26;9.05;;;1.52;;
13108;SDS011;6620;53.734;11.510;2023-02-18T07:36:51;11.10;;;1.80;;
13108;SDS011;6620;53.734;11.510;2023-02-18T07:39:17;11.53;;;2.57;;
13108;SDS011;6620;53.734;11.510;2023-02-18T07:41:44;10.52;;;1.38;;
13108;SDS011;6620;53.734;11.510;2023-02-18T07:44:10;9.23;;;1.58;;
13108;SDS011;6620;53.734;11.510;2023-02-18T07:46:38;10.33;;;1.97;;
13108;SDS011;6620;53.734;11.510;2023-02-18T07:49:03;4.65;;;1.17;;
13108;SDS011;6620;53.734;11.510;2023-02-18T07:51:28;7.97;;;1.30;;
13108;SDS011;6620;53.734;11.510;2023-02-18T07:53:53;6.23;;;1.30;;
13108;SDS011;6620;53.734;11.510;2023-02-18T07:56:19;13.88;;;2.15;;
13108;SDS011;6620;53.734;11.510;2023-02-18T07:58:44;14.15;;;1.95;;
13108;SDS011;6620;53.734;11.510;2023-02-18T08:01:11;14.40;;;1.27;;
13108;SDS011;6620;53.734;11.510;2023-02-18T08:03:36;10.10;;;1.02;;
13108;SDS011;6620;53.734;11.510;2023-02-18T08:06:02;5.18;;;1.15;;
13108;SDS011;6620;53.734;11.510;2023-02-18T08:08:29;12.82;;;1.15;;
13108;SDS011;6620;53.734;11.510;2023-02-18T08:10:55;7.03;;;1.08;;
13108;SDS011;6620;53.734;11.510;2023-02-18T08:13:21;8.35;;;0.95;;
13108;SDS011;6620;53.734;11.510;2023-02-18T08:15:46;9.75;;;1.23;;
13108;SDS011;6620;53.734;11.510;2023-02-18T08:18:19;9.13;;;0.93;;
13108;SDS011;6620;53.734;11.510;2023-02-18T08:20:45;8.02;;;0.98;;
13108;SDS011;6620;53.734;11.510;2023-02-18T08:23:11;14.60;;;1.17;;
13108;SDS011;6620;53.734;11.510;2023-02-18T08:25:37;5.38;;;1.05;;
13108;SDS011;6620;53.734;11.510;2023-02-18T08:28:02;12.43;;;1.33;;
13108;SDS011;6620;53.734;11.510;2023-02-18T08:30:27;8.52;;;1.10;;
13108;SDS011;6620;53.734;11.510;2023-02-18T08:32:53;11.13;;;1.50;;
13108;SDS011;6620;53.734;11.510;2023-02-18T08:35:18;15.15;;;2.08;;
13108;SDS011;6620;53.734;11.510;2023-02-18T08:37:43;11.65;;;1.27;;
13108;SDS011;6620;53.734;11.510;2023-02-18T08:40:09;8.67;;;1.73;;
13108;SDS011;6620;53.734;11.510;2023-02-18T08:42:34;14.10;;;1.70;;
13108;SDS011;6620;53.734;11.510;2023-02-18T08:44:59;17.30;;;2.40;;
13108;SDS011;6620;53.734;11.510;2023-02-18T08:47:25;15.57;;;1.27;;
13108;SDS011;6620;53.734;11.510;2023-02-18T08:49:51;13.70;;;1.42;;
13108;SDS011;6620;53.734;11.510;2023-02-18T08:52:16;6.03;;;2.05;;
13108;SDS011;6620;53.734;11.510;2023-02-18T08:54:42;10.00;;;1.35;;
13108;SDS011;6620;53.734;11.510;2023-02-18T08:57:07;9.55;;;1.40;;
13108;SDS011;6620;53.734;11.510;2023-02-18T08:59:32;6.90;;;1.07;;
13108;SDS011;6620;53.734;11.510;2023-02-18T09:01:57;5.88;;;1.10;;
13108;SDS011;6620;53.734;11.510;2023-02-18T09:04:23;11.10;;;2.28;;
13108;SDS011;6620;53.734;11.510;2023-02-18T09:06:48;8.63;;;1.63;;
13108;SDS011;6620;53.734;11.510;2023-02-18T09:09:14;8.70;;;1.17;;
13108;SDS011;6620;53.734;11.510;2023-02-18T09:11:39;7.75;;;1.42;;
13108;SDS011;6620;53.734;11.510;2023-02-18T09:14:04;12.18;;;2.00;;
13108;SDS011;6620;53.734;11.510;2023-02-18T09:16:29;9.13;;;1.05;;
13108;SDS011;6620;53.734;11.510;2023-02-18T09:18:55;7.13;;;1.13;;
13108;SDS011;6620;53.734;11.510;2023-02-18T09:21:21;10.32;;;1.35;;
13108;SDS011;6620;53.734;11.510;2023-02-18T09:23:47;7.55;;;0.65;;
13108;SDS011;6620;53.734;11.510;2023-02-18T09:26:13;6.43;;;1.23;;
13108;SDS011;6620;53.734;11.510;2023-02-18T09:28:39;6.80;;;1.27;;
13108;SDS011;6620;53.734;11.510;2023-02-18T09:31:09;7.75;;;1.55;;
13108;SDS011;6620;53.734;11.510;2023-02-18T09:33:35;8.25;;;1.30;;
13108;SDS011;6620;53.734;11.510;2023-02-18T09:36:01;6.28;;;1.30;;
13108;SDS011;6620;53.734;11.510;2023-02-18T09:38:26;4.65;;;1.92;;
13108;SDS011;6620;53.734;11.510;2023-02-18T09:40:52;4.15;;;0.75;;
13108;SDS011;6620;53.734;11.510;2023-02-18T09:43:32;7.13;;;1.33;;
13108;SDS011;6620;53.734;11.510;2023-02-18T09:45:58;3.75;;;1.13;;
13108;SDS011;6620;53.734;11.510;2023-02-18T09:48:25;3.28;;;0.75;;
13108;SDS011;6620;53.734;11.510;2023-02-18T09:50:51;3.75;;;0.90;;
13108;SDS011;6620;53.734;11.510;2023-02-18T09:53:17;2.53;;;0.60;;
13108;SDS011;6620;53.734;11.510;2023-02-18T09:55:43;3.72;;;1.05;;
13108;SDS011;6620;53.734;11.510;2023-02-18T09:58:14;5.13;;;0.88;;
13108;SDS011;6620;53.734;11.510;2023-02-18T10:00:43;7.63;;;1.02;;
13108;SDS011;6620;53.734;11.510;2023-02-18T10:03:11;4.10;;;0.65;;
13108;SDS011;6620;53.734;11.510;2023-02-18T10:05:39;4.35;;;0.80;;
13108;SDS011;6620;53.734;11.510;2023-02-18T10:08:05;8.48;;;0.70;;
13108;SDS011;6620;53.734;11.510;2023-02-18T10:10:38;5.22;;;0.80;;
13108;SDS011;6620;53.734;11.510;2023-02-18T10:13:05;7.20;;;0.80;;
13108;SDS011;6620;53.734;11.510;2023-02-18T10:15:31;3.55;;;0.90;;
13108;SDS011;6620;53.734;11.510;2023-02-18T10:17:57;4.50;;;0.82;;
13108;SDS011;6620;53.734;11.510;2023-02-18T10:20:23;4.25;;;0.55;;
13108;SDS011;6620;53.734;11.510;2023-02-18T10:22:49;3.35;;;0.77;;
13108;SDS011;6620;53.734;11.510;2023-02-18T10:25:16;4.47;;;0.63;;
13108;SDS011;6620;53.734;11.510;2023-02-18T10:27:42;7.43;;;0.80;;
13108;SDS011;6620;53.734;11.510;2023-02-18T10:32:35;3.27;;;0.77;;
13108;SDS011;6620;53.734;11.510;2023-02-18T10:35:04;3.88;;;0.70;;
13108;SDS011;6620;53.734;11.510;2023-02-18T10:43:08;4.28;;;1.10;;
13108;SDS011;6620;53.734;11.510;2023-02-18T10:52:54;4.35;;;0.60;;
13108;SDS011;6620;53.734;11.510;2023-02-18T10:55:20;3.92;;;0.75;;
13108;SDS011;6620;53.734;11.510;2023-02-18T10:57:57;3.83;;;0.70;;
13108;SDS011;6620;53.734;11.510;2023-02-18T11:00:23;3.80;;;0.43;;
13108;SDS011;6620;53.734;11.510;2023-02-18T11:05:27;4.03;;;1.00;;
13108;SDS011;6620;53.734;11.510;2023-02-18T11:07:53;7.45;;;1.42;;
13108;SDS011;6620;53.734;11.510;2023-02-18T11:10:25;4.97;;;0.93;;
13108;SDS011;6620;53.734;11.510;2023-02-18T11:12:51;3.85;;;0.75;;
13108;SDS011;6620;53.734;11.510;2023-02-18T11:15:23;3.22;;;1.05;;
13108;SDS011;6620;53.734;11.510;2023-02-18T11:17:50;4.68;;;1.02;;
13108;SDS011;6620;53.734;11.510;2023-02-18T11:22:47;6.80;;;1.23;;
13108;SDS011;6620;53.734;11.510;2023-02-18T11:25:23;4.20;;;1.10;;
13108;SDS011;6620;53.734;11.510;2023-02-18T11:27:55;2.80;;;0.80;;
13108;SDS011;6620;53.734;11.510;2023-02-18T11:32:51;5.90;;;1.00;;
13108;SDS011;6620;53.734;11.510;2023-02-18T11:35:18;8.00;;;1.60;;
13108;SDS011;6620;53.734;11.510;2023-02-18T11:37:44;3.97;;;1.40;;
13108;SDS011;6620;53.734;11.510;2023-02-18T11:45:31;2.47;;;0.68;;
13108;SDS011;6620;53.734;11.510;2023-02-18T11:48:01;7.75;;;1.10;;
13108;SDS011;6620;53.734;11.510;2023-02-18T11:50:31;2.88;;;0.70;;
13108;SDS011;6620;53.734;11.510;2023-02-18T11:52:56;3.58;;;0.68;;
13108;SDS011;6620;53.734;11.510;2023-02-18T11:55:24;9.68;;;0.85;;
13108;SDS011;6620;53.734;11.510;2023-02-18T11:57:55;3.55;;;0.90;;
13108;SDS011;6620;53.734;11.510;2023-02-18T12:00:23;6.68;;;0.98;;
13108;SDS011;6620;53.734;11.510;2023-02-18T12:02:49;0.88;;;0.65;;
13108;SDS011;6620;53.734;11.510;2023-02-18T12:05:22;4.30;;;1.02;;
13108;SDS011;6620;53.734;11.510;2023-02-18T12:08:02;1.17;;;0.73;;
13108;SDS011;6620;53.734;11.510;2023-02-18T12:10:37;2.17;;;0.60;;
13108;SDS011;6620;53.734;11.510;2023-02-18T12:13:06;1.40;;;0.45;;
13108;SDS011;6620;53.734;11.510;2023-02-18T12:15:46;0.82;;;0.40;;
13108;SDS011;6620;53.734;11.510;2023-02-18T12:23:34;4.57;;;0.95;;
13108;SDS011;6620;53.734;11.510;2023-02-18T12:28:43;1.58;;;0.70;;
13108;SDS011;6620;53.734;11.510;2023-02-18T12:37:00;2.15;;;0.50;;
13108;SDS011;6620;53.734;11.510;2023-02-18T12:42:04;0.90;;;0.50;;
13108;SDS011;6620;53.734;11.510;2023-02-18T12:44:37;3.47;;;0.52;;
13108;SDS011;6620;53.734;11.510;2023-02-18T12:47:27;2.33;;;0.73;;
13108;SDS011;6620;53.734;11.510;2023-02-18T13:03:26;0.90;;;0.57;;
13108;SDS011;6620;53.734;11.510;2023-02-18T13:08:33;1.55;;;0.65;;
13108;SDS011;6620;53.734;11.510;2023-02-18T13:11:03;1.98;;;0.70;;
13108;SDS011;6620;53.734;11.510;2023-02-18T13:13:32;0.45;;;0.43;;
13108;SDS011;6620;53.734;11.510;2023-02-18T13:16:00;2.05;;;0.60;;
13108;SDS011;6620;53.734;11.510;2023-02-18T13:18:27;3.95;;;0.70;;
13108;SDS011;6620;53.734;11.510;2023-02-18T13:20:55;3.08;;;0.60;;
13108;SDS011;6620;53.734;11.510;2023-02-18T13:23:22;6.55;;;0.60;;
13108;SDS011;6620;53.734;11.510;2023-02-18T13:25:50;1.52;;;0.50;;
13108;SDS011;6620;53.734;11.510;2023-02-18T13:28:19;5.45;;;1.58;;
13108;SDS011;6620;53.734;11.510;2023-02-18T13:30:48;3.10;;;0.55;;
13108;SDS011;6620;53.734;11.510;2023-02-18T13:33:26;1.58;;;0.75;;
13108;SDS011;6620;53.734;11.510;2023-02-18T13:35:57;0.68;;;0.40;;
13108;SDS011;6620;53.734;11.510;2023-02-18T13:40:49;0.30;;;0.20;;
13108;SDS011;6620;53.734;11.510;2023-02-18T13:46:11;0.40;;;0.30;;
13108;SDS011;6620;53.734;11.510;2023-02-18T13:51:13;2.17;;;0.25;;
13108;SDS011;6620;53.734;11.510;2023-02-18T13:53:41;0.30;;;0.30;;
13108;SDS011;6620;53.734;11.510;2023-02-18T13:56:18;2.03;;;0.20;;
13108;SDS011;6620;53.734;11.510;2023-02-18T14:01:14;1.45;;;0.98;;
13108;SDS011;6620;53.734;11.510;2023-02-18T14:08:38;1.83;;;1.00;;
13108;SDS011;6620;53.734;11.510;2023-02-18T14:13:54;1.98;;;1.00;;
13108;SDS011;6620;53.734;11.510;2023-02-18T14:16:19;2.85;;;1.38;;
13108;SDS011;6620;53.734;11.510;2023-02-18T14:28:39;10.27;;;2.38;;
13108;SDS011;6620;53.734;11.510;2023-02-18T14:33:36;7.43;;;2.67;;
13108;SDS011;6620;53.734;11.510;2023-02-18T14:38:34;5.75;;;1.83;;
13108;SDS011;6620;53.734;11.510;2023-02-18T14:41:07;3.92;;;2.10;;
13108;SDS011;6620;53.734;11.510;2023-02-18T14:46:34;0.95;;;0.75;;
13108;SDS011;6620;53.734;11.510;2023-02-18T14:51:32;0.32;;;0.20;;
13108;SDS011;6620;53.734;11.510;2023-02-18T14:54:01;0.82;;;0.38;;
13108;SDS011;6620;53.734;11.510;2023-02-18T14:56:28;0.57;;;0.30;;
13108;SDS011;6620;53.734;11.510;2023-02-18T14:58:55;0.10;;;0.10;;
13108;SDS011;6620;53.734;11.510;2023-02-18T15:01:31;0.10;;;0.10;;
13108;SDS011;6620;53.734;11.510;2023-02-18T15:03:57;0.30;;;0.15;;
13108;SDS011;6620;53.734;11.510;2023-02-18T15:08:55;0.10;;;0.10;;
13108;SDS011;6620;53.734;11.510;2023-02-18T15:11:21;0.10;;;0.10;;
13108;SDS011;6620;53.734;11.510;2023-02-18T15:13:47;4.28;;;0.82;;
13108;SDS011;6620;53.734;11.510;2023-02-18T15:16:25;1.02;;;0.20;;
13108;SDS011;6620;53.734;11.510;2023-02-18T15:19:04;0.20;;;0.10;;
13108;SDS011;6620;53.734;11.510;2023-02-18T15:21:38;1.02;;;0.17;;
13108;SDS011;6620;53.734;11.510;2023-02-18T15:24:15;1.38;;;0.10;;
13108;SDS011;6620;53.734;11.510;2023-02-18T15:26:44;2.05;;;0.17;;
13108;SDS011;6620;53.734;11.510;2023-02-18T15:29:29;0.85;;;0.20;;
13108;SDS011;6620;53.734;11.510;2023-02-18T15:31:56;0.30;;;0.10;;
13108;SDS011;6620;53.734;11.510;2023-02-18T15:36:53;1.63;;;0.50;;
13108;SDS011;6620;53.734;11.510;2023-02-18T15:39:18;1.90;;;0.25;;
13108;SDS011;6620;53.734;11.510;2023-02-18T15:41:43;1.17;;;0.30;;
13108;SDS011;6620;53.734;11.510;2023-02-18T15:44:14;0.85;;;0.70;;
13108;SDS011;6620;53.734;11.510;2023-02-18T15:46:42;0.43;;;0.20;;
13108;SDS011;6620;53.734;11.510;2023-02-18T15:49:07;1.83;;;0.23;;
13108;SDS011;6620;53.734;11.510;2023-02-18T15:51:32;0.77;;;0.30;;
13108;SDS011;6620;53.734;11.510;2023-02-18T15:53:58;0.52;;;0.10;;
13108;SDS011;6620;53.734;11.510;2023-02-18T15:56:41;2.15;;;0.40;;
13108;SDS011;6620;53.734;11.510;2023-02-18T15:59:27;0.45;;;0.40;;
13108;SDS011;6620;53.734;11.510;2023-02-18T16:01:56;1.33;;;0.30;;
13108;SDS011;6620;53.734;11.510;2023-02-18T16:04:23;2.42;;;0.30;;
13108;SDS011;6620;53.734;11.510;2023-02-18T16:06:52;0.45;;;0.30;;
13108;SDS011;6620;53.734;11.510;2023-02-18T16:09:25;0.75;;;0.68;;
13108;SDS011;6620;53.734;11.510;2023-02-18T16:11:52;1.65;;;0.60;;
13108;SDS011;6620;53.734;11.510;2023-02-18T16:16:53;1.77;;;0.52;;
13108;SDS011;6620;53.734;11.510;2023-02-18T16:19:24;1.85;;;0.40;;
13108;SDS011;6620;53.734;11.510;2023-02-18T16:21:49;0.60;;;0.50;;
13108;SDS011;6620;53.734;11.510;2023-02-18T16:24:27;1.35;;;0.55;;
13108;SDS011;6620;53.734;11.510;2023-02-18T16:26:58;1.67;;;0.77;;
13108;SDS011;6620;53.734;11.510;2023-02-18T16:29:33;2.42;;;0.80;;
13108;SDS011;6620;53.734;11.510;2023-02-18T16:31:59;1.63;;;1.52;;
13108;SDS011;6620;53.734;11.510;2023-02-18T16:34:24;2.15;;;1.88;;
13108;SDS011;6620;53.734;11.510;2023-02-18T16:36:52;5.32;;;3.35;;
13108;SDS011;6620;53.734;11.510;2023-02-18T16:39:36;5.03;;;3.92;;
13108;SDS011;6620;53.734;11.510;2023-02-18T16:42:01;6.25;;;4.32;;
13108;SDS011;6620;53.734;11.510;2023-02-18T16:44:30;8.40;;;5.70;;
13108;SDS011;6620;53.734;11.510;2023-02-18T16:46:56;6.35;;;4.63;;
13108;SDS011;6620;53.734;11.510;2023-02-18T16:49:23;6.93;;;5.10;;
13108;SDS011;6620;53.734;11.510;2023-02-18T16:51:49;5.88;;;4.80;;
13108;SDS011;6620;53.734;11.510;2023-02-18T16:54:14;4.15;;;3.65;;
13108;SDS011;6620;53.734;11.510;2023-02-18T16:56:40;5.72;;;4.65;;
13108;SDS011;6620;53.734;11.510;2023-02-18T16:59:06;6.30;;;4.25;;
13108;SDS011;6620;53.734;11.510;2023-02-18T17:01:33;5.72;;;3.88;;
13108;SDS011;6620;53.734;11.510;2023-02-18T17:04:01;4.03;;;3.40;;
13108;SDS011;6620;53.734;11.510;2023-02-18T17:06:27;4.47;;;3.38;;